^^
Datos históricos de la estación: Murcia-Puente Tocinos
Diario Informe para Diciembre 3, 2019 Unidades:  Ambas    Ingés   Métrico
Diario Semanal Mensual Anual
  Máxima: Mínima: Promedio:
Temperatura: 57 °F /  13.9 °C 51.3 °F /  10.7 °C 54 °F /  12.2 °C
Punto de rocio: 53.4 °F /  11.9 °C 45 °F /  7.2 °C 49.3 °F /  9.6 °C
Humedad: 95% 71% 85%
Velocidad viento: 17.8mph /  28.7km/h - 8.9mph /  14.4km/h
Racha viento: 33.4mph /  53.8km/h - -
Viento- - ESE
Presión: 29.9 in /  1013.4 hPa 29.8 in /  1008.4 hPa -
Precipitación: 0.83 in /  21.1 mm    
 
 
Tabla de datos para Diciembre 3, 2019
Hora Temperatura Punto de rocio Presión Viento Velocidad viento Racha viento Humedad Intensidad lluvia(por hora) Nubes
00:04 55 °F /  12.8 °C 53.2 °F /  11.8 °C 29.9in /  1013.4hPa NNE 10.8mph /  17.4km/h 23.7mph /  38.1km/h 94% 0.09in /  2.3mm
00:09 54.9 °F /  12.7 °C 53.4 °F /  11.9 °C 29.9in /  1013.4hPa NNE 11.2mph /  18km/h 24.2mph /  38.9km/h 95% 0.1in /  2.5mm
00:14 54.9 °F /  12.7 °C 53.4 °F /  11.9 °C 29.9in /  1013.2hPa NNE 11.4mph /  18.3km/h 21mph /  33.8km/h 95% 0.12in /  3.1mm
00:19 54.9 °F /  12.7 °C 53.4 °F /  11.9 °C 29.9in /  1013.2hPa NNE 11.4mph /  18.4km/h 19mph /  30.6km/h 95% 0.13in /  3.3mm
00:24 54.7 °F /  12.6 °C 53.2 °F /  11.8 °C 29.9in /  1013.3hPa NNE 11.4mph /  18.4km/h 19mph /  30.6km/h 95% 0.13in /  3.4mm
00:29 54.7 °F /  12.6 °C 53.2 °F /  11.8 °C 29.9in /  1013.3hPa NE 11.4mph /  18.4km/h 19mph /  30.6km/h 95% 0.14in /  3.6mm
00:34 54.7 °F /  12.6 °C 53.1 °F /  11.7 °C 29.9in /  1013.3hPa NE 11.4mph /  18.4km/h 19mph /  30.6km/h 94.5% 0.15in /  3.8mm
00:39 54.5 °F /  12.5 °C 52.9 °F /  11.6 °C 29.9in /  1013.4hPa NE 11.4mph /  18.4km/h 18mph /  29km/h 94% 0.17in /  4.4mm
00:44 54.5 °F /  12.5 °C 52.7 °F /  11.5 °C 29.9in /  1013.4hPa NNE 8.5mph /  13.7km/h 17.8mph /  28.6km/h 94.1% 0.17in /  4.4mm
00:49 54.3 °F /  12.4 °C 52.5 °F /  11.4 °C 29.9in /  1013.4hPa NE 7.4mph /  11.9km/h 19.7mph /  31.7km/h 94% 0.18in /  4.6mm
00:54 54.3 °F /  12.4 °C 52.5 °F /  11.4 °C 29.9in /  1013.4hPa NNE 9.1mph /  14.6km/h 20mph /  32.2km/h 94% 0.2in /  5.1mm
00:59 54.3 °F /  12.4 °C 52.7 °F /  11.5 °C 29.9in /  1013.2hPa NE 9.7mph /  15.6km/h 19.6mph /  31.5km/h 94.2% 0.2in /  5.1mm
01:04 54.3 °F /  12.4 °C 52.9 °F /  11.6 °C 29.9in /  1013.2hPa NNE 10.8mph /  17.4km/h 21.9mph /  35.2km/h 95% 0.21in /  5.4mm
01:09 54.3 °F /  12.4 °C 52.9 °F /  11.6 °C 29.9in /  1013.2hPa NE 11.2mph /  18km/h 24.6mph /  39.6km/h 95% 0.22in /  5.7mm
01:14 54.3 °F /  12.4 °C 52.9 °F /  11.6 °C 29.9in /  1013.1hPa NNE 13.7mph /  22.1km/h 25mph /  40.2km/h 95% 0.22in /  5.6mm
01:19 54.3 °F /  12.4 °C 52.9 °F /  11.6 °C 29.9in /  1013.1hPa NE 14.7mph /  23.7km/h 24.6mph /  39.6km/h 95% 0.22in /  5.7mm
01:24 54.3 °F /  12.4 °C 52.9 °F /  11.6 °C 29.9in /  1013.1hPa NE 14.5mph /  23.4km/h 25mph /  40.2km/h 95% 0.23in /  5.9mm
01:29 54.3 °F /  12.4 °C 52.9 °F /  11.6 °C 29.9in /  1013.1hPa NE 14.5mph /  23.3km/h 24mph /  38.6km/h 95% 0.24in /  6.2mm
01:34 54.3 °F /  12.4 °C 52.9 °F /  11.6 °C 29.9in /  1013.1hPa NNE 11.1mph /  17.8km/h 16.1mph /  25.9km/h 95% 0.24in /  6.2mm
01:39 54.3 °F /  12.4 °C 52.9 °F /  11.6 °C 29.9in /  1013.1hPa North 9.7mph /  15.6km/h 16mph /  25.7km/h 95% 0.24in /  6.1mm
01:44 54.3 °F /  12.4 °C 52.9 °F /  11.6 °C 29.9in /  1012.9hPa NNO 6.5mph /  10.4km/h 9mph /  14.5km/h 95% 0.25in /  6.4mm
01:49 54.1 °F /  12.3 °C 52.9 °F /  11.6 °C 29.9in /  1012.9hPa NNE 5.2mph /  8.4km/h 11.5mph /  18.5km/h 95% 0.26in /  6.6mm
01:54 54.1 °F /  12.3 °C 52.7 °F /  11.5 °C 29.9in /  1012.9hPa North 4.8mph /  7.8km/h 12mph /  19.3km/h 95% 0.25in /  6.4mm
01:59 54.1 °F /  12.3 °C 52.7 °F /  11.5 °C 29.9in /  1012.6hPa NNE 4.7mph /  7.6km/h 9mph /  14.5km/h 95% 0.24in /  6.2mm
02:04 54.1 °F /  12.3 °C 52.7 °F /  11.5 °C 29.9in /  1012.6hPa NO 4.7mph /  7.6km/h 9.7mph /  15.6km/h 95% 0.24in /  6.1mm
02:09 54.1 °F /  12.3 °C 52.7 °F /  11.5 °C 29.9in /  1012.6hPa ENE 4.7mph /  7.6km/h 10mph /  16.1km/h 95% 0.22in /  5.6mm
02:14 54.1 °F /  12.3 °C 52.7 °F /  11.5 °C 29.9in /  1012.6hPa North 3.5mph /  5.7km/h 13.8mph /  22.2km/h 95% 0.22in /  5.7mm
02:19 54.1 °F /  12.3 °C 52.7 °F /  11.5 °C 29.9in /  1012.6hPa NNE 3.1mph /  5km/h 14mph /  22.5km/h 95% 0.22in /  5.6mm
02:24 54 °F /  12.2 °C 52.5 °F /  11.4 °C 29.9in /  1012.8hPa North 4.2mph /  6.8km/h 16.3mph /  26.2km/h 94.6% 0.2in /  5.1mm
02:29 54 °F /  12.2 °C 52.2 °F /  11.2 °C 29.9in /  1012.8hPa NNE 4.7mph /  7.6km/h 16mph /  25.7km/h 93.9% 0.19in /  4.9mm
02:34 53.8 °F /  12.1 °C 51.8 °F /  11 °C 29.9in /  1012.8hPa NNE 6.3mph /  10.1km/h 15mph /  24.1km/h 93% 0.18in /  4.6mm
02:39 53.8 °F /  12.1 °C 51.6 °F /  10.9 °C 29.9in /  1013.0hPa North 6.9mph /  11.1km/h 12mph /  19.3km/h 92.1% 0.19in /  4.9mm
02:44 53.8 °F /  12.1 °C 51.4 °F /  10.8 °C 29.9in /  1013.0hPa North 5.8mph /  9.4km/h 12.7mph /  20.4km/h 92% 0.19in /  4.9mm
02:49 53.6 °F /  12 °C 51.1 °F /  10.6 °C 29.9in /  1013.0hPa North 5.4mph /  8.7km/h 15.6mph /  25.1km/h 91.5% 0.18in /  4.6mm
02:54 53.6 °F /  12 °C 50.7 °F /  10.4 °C 29.9in /  1013.0hPa NNO 6mph /  9.6km/h 16.1mph /  25.9km/h 90.4% 0.17in /  4.3mm
02:59 53.6 °F /  12 °C 50.4 °F /  10.2 °C 29.9in /  1012.6hPa North 6.2mph /  10km/h 16.1mph /  25.9km/h 88.9% 0.15in /  3.8mm
03:04 53.8 °F /  12.1 °C 50.2 °F /  10.1 °C 29.9in /  1012.6hPa North 6.7mph /  10.8km/h 19mph /  30.6km/h 87.8% 0.16in /  4.1mm
03:09 54 °F /  12.2 °C 50.2 °F /  10.1 °C 29.9in /  1012.6hPa North 6.9mph /  11.1km/h 19mph /  30.6km/h 87% 0.15in /  3.8mm
03:14 54 °F /  12.2 °C 50.2 °F /  10.1 °C 29.9in /  1012.6hPa North 6.9mph /  11.1km/h 12.7mph /  20.4km/h 87% 0.13in /  3.3mm
03:19 53.8 °F /  12.1 °C 50 °F /  10 °C 29.9in /  1012.6hPa Este 6.9mph /  11.1km/h 13mph /  20.9km/h 87% 0.11in /  2.8mm
03:24 53.8 °F /  12.1 °C 50.2 °F /  10.1 °C 29.9in /  1012.6hPa NO 5.3mph /  8.5km/h 10.7mph /  17.2km/h 87.5% 0.09in /  2.3mm
03:29 53.8 °F /  12.1 °C 50.2 °F /  10.1 °C 29.9in /  1012.4hPa NO 4.7mph /  7.6km/h 12.7mph /  20.4km/h 88% 0.09in /  2.3mm
03:34 53.6 °F /  12 °C 50.4 °F /  10.2 °C 29.9in /  1012.4hPa ONO 6mph /  9.6km/h 13mph /  20.9km/h 89% 0.08in /  2.1mm
03:39 53.6 °F /  12 °C 50.7 °F /  10.4 °C 29.9in /  1012.4hPa NO 6.4mph /  10.3km/h 10mph /  16.1km/h 89.8% 0.07in /  1.8mm
03:44 53.4 °F /  11.9 °C 50.5 °F /  10.3 °C 29.9in /  1012.1hPa NO 5.7mph /  9.2km/h 10.4mph /  16.7km/h 90% 0.05in /  1.3mm
03:49 53.4 °F /  11.9 °C 50.5 °F /  10.3 °C 29.9in /  1012.1hPa NO 5.4mph /  8.7km/h 11.5mph /  18.5km/h 90% 0.04in /  1.0mm
03:54 53.4 °F /  11.9 °C 50.5 °F /  10.3 °C 29.9in /  1012.1hPa NO 5.8mph /  9.3km/h 12mph /  19.3km/h 90% 0.03in /  0.8mm
03:59 53.4 °F /  11.9 °C 50.5 °F /  10.3 °C 29.9in /  1012.0hPa ONO 5.9mph /  9.5km/h 12mph /  19.3km/h 90% 0.03in /  0.8mm
04:04 53.6 °F /  12 °C 50.7 °F /  10.4 °C 29.9in /  1012.0hPa NO 5.3mph /  8.6km/h 9mph /  14.5km/h 90% 0.03in /  0.8mm
04:09 53.4 °F /  11.9 °C 50.5 °F /  10.3 °C 29.9in /  1012.0hPa ONO 5.2mph /  8.4km/h 5mph /  8km/h 90% 0.01in /  0.3mm
04:14 53.4 °F /  11.9 °C 50.5 °F /  10.3 °C 29.9in /  1011.8hPa ONO 2.9mph /  4.7km/h 5mph /  8km/h 90% 0.01in /  0.3mm
04:19 53.4 °F /  11.9 °C 50.5 °F /  10.3 °C 29.9in /  1011.8hPa ONO 2mph /  3.2km/h 3.6mph /  5.8km/h 90% 0.01in /  0.3mm
04:24 53.4 °F /  11.9 °C 50.5 °F /  10.3 °C 29.9in /  1011.8hPa ONO 1.6mph /  2.5km/h 4mph /  6.4km/h 90% 0.01in /  0.3mm
04:29 53.4 °F /  11.9 °C 50.5 °F /  10.3 °C 29.9in /  1011.7hPa ONO 1.4mph /  2.2km/h 4.3mph /  6.9km/h 90% 0.01in /  0.3mm
04:34 53.4 °F /  11.9 °C 50.7 °F /  10.4 °C 29.9in /  1011.7hPa SSE 1.8mph /  2.9km/h 5mph /  8km/h 90.6% 0in /  0.0mm
04:39 53.4 °F /  11.9 °C 50.9 °F /  10.5 °C 29.9in /  1011.7hPa SE 2mph /  3.2km/h 5mph /  8km/h 91% 0in /  0.0mm
04:44 53.4 °F /  11.9 °C 50.9 °F /  10.5 °C 29.9in /  1011.7hPa SSE 2mph /  3.2km/h 5mph /  8km/h 91% 0in /  0.0mm
04:49 53.4 °F /  11.9 °C 50.9 °F /  10.5 °C 29.9in /  1011.7hPa SSO 2mph /  3.2km/h 6.2mph /  10km/h 91% 0in /  0.0mm
04:54 53.2 °F /  11.8 °C 50.5 °F /  10.3 °C 29.9in /  1011.8hPa ENE 2.7mph /  4.3km/h 9.2mph /  14.8km/h 90.4% 0in /  0.0mm
04:59 53.6 °F /  12 °C 50.2 °F /  10.1 °C 29.9in /  1011.8hPa NE 2.9mph /  4.7km/h 11.4mph /  18.3km/h 88.1% 0in /  0.0mm
05:04 54 °F /  12.2 °C 49.8 °F /  9.9 °C 29.9in /  1011.8hPa NNE 5.2mph /  8.3km/h 12mph /  19.3km/h 85.8% 0in /  0.0mm
05:09 54.1 °F /  12.3 °C 49.6 °F /  9.8 °C 29.9in /  1011.8hPa NE 5.9mph /  9.5km/h 10mph /  16.1km/h 84.7% 0in /  0.0mm
05:14 54.1 °F /  12.3 °C 49.5 °F /  9.7 °C 29.9in /  1011.6hPa NE 5.9mph /  9.5km/h 10.7mph /  17.2km/h 84% 0in /  0.0mm
05:19 54.3 °F /  12.4 °C 49.5 °F /  9.7 °C 29.9in /  1011.6hPa NE 5.9mph /  9.5km/h 13mph /  20.9km/h 83.8% 0in /  0.0mm
05:24 54.5 °F /  12.5 °C 49.5 °F /  9.7 °C 29.9in /  1011.6hPa NE 7mph /  11.3km/h 16.3mph /  26.2km/h 83.2% 0in /  0.0mm
05:29 54.5 °F /  12.5 °C 49.5 °F /  9.7 °C 29.9in /  1011.4hPa NNE 7.4mph /  11.9km/h 16mph /  25.7km/h 83.1% 0in /  0.0mm
05:34 54.7 °F /  12.6 °C 49.6 °F /  9.8 °C 29.9in /  1011.4hPa NNE 7.4mph /  11.9km/h 14mph /  22.5km/h 83% 0in /  0.0mm
05:39 54.5 °F /  12.5 °C 49.5 °F /  9.7 °C 29.9in /  1011.4hPa NE 7.4mph /  11.9km/h 9.7mph /  15.6km/h 83% 0in /  0.0mm
05:44 54.7 °F /  12.6 °C 49.6 °F /  9.8 °C 29.9in /  1011.3hPa NNE 6.3mph /  10.2km/h 10.4mph /  16.7km/h 83% 0in /  0.0mm
05:49 54.7 °F /  12.6 °C 49.6 °F /  9.8 °C 29.9in /  1011.3hPa NNE 5.9mph /  9.5km/h 10mph /  16.1km/h 83% 0in /  0.0mm
05:54 54.7 °F /  12.6 °C 49.5 °F /  9.7 °C 29.9in /  1011.3hPa NNE 5mph /  8.1km/h 7mph /  11.3km/h 82.8% 0in /  0.0mm
05:59 54.9 °F /  12.7 °C 49.3 °F /  9.6 °C 29.9in /  1011.2hPa NNE 4.7mph /  7.6km/h 10.4mph /  16.7km/h 81.8% 0in /  0.0mm
06:04 55 °F /  12.8 °C 49.3 °F /  9.6 °C 29.9in /  1011.2hPa NE 5.1mph /  8.2km/h 16.3mph /  26.2km/h 80.6% 0in /  0.0mm
06:09 55.6 °F /  13.1 °C 49.3 °F /  9.6 °C 29.9in /  1011.2hPa NE 5.2mph /  8.4km/h 18.4mph /  29.6km/h 79.3% 0in /  0.0mm
06:14 55.8 °F /  13.2 °C 49.1 °F /  9.5 °C 29.9in /  1011.2hPa NE 8.8mph /  14.1km/h 18mph /  29km/h 78.2% 0in /  0.0mm
06:19 55.8 °F /  13.2 °C 49.1 °F /  9.5 °C 29.9in /  1011.2hPa NE 10mph /  16.1km/h 16mph /  25.7km/h 78.4% 0in /  0.0mm
06:24 55.6 °F /  13.1 °C 49.3 °F /  9.6 °C 29.9in /  1011.2hPa NNE 8.9mph /  14.3km/h 15mph /  24.1km/h 79% 0in /  0.0mm
06:29 55.6 °F /  13.1 °C 49.3 °F /  9.6 °C 29.9in /  1011.2hPa NNE 8.5mph /  13.7km/h 15mph /  24.1km/h 79% 0in /  0.0mm
06:34 55.6 °F /  13.1 °C 49.3 °F /  9.6 °C 29.9in /  1011.2hPa NE 8.5mph /  13.7km/h 15mph /  24.1km/h 79% 0in /  0.0mm
06:39 55.4 °F /  13 °C 49.3 °F /  9.6 °C 29.9in /  1011.2hPa NE 8.5mph /  13.7km/h 14.5mph /  23.3km/h 79.9% 0in /  0.0mm
06:44 55.2 °F /  12.9 °C 49.3 °F /  9.6 °C 29.9in /  1011.2hPa NE 6.8mph /  10.9km/h 15mph /  24.1km/h 80% 0in /  0.0mm
06:49 55.2 °F /  12.9 °C 49.3 °F /  9.6 °C 29.9in /  1011.2hPa NNE 6.2mph /  10km/h 15.2mph /  24.5km/h 80.3% 0in /  0.0mm
06:54 55.2 °F /  12.9 °C 49.5 °F /  9.7 °C 29.9in /  1011.3hPa NNE 7.9mph /  12.7km/h 17.3mph /  27.8km/h 80.6% 0in /  0.0mm
06:59 55.4 °F /  13 °C 49.5 °F /  9.7 °C 29.9in /  1011.3hPa NNE 8.5mph /  13.7km/h 17mph /  27.4km/h 80% 0in /  0.0mm
07:04 55.8 °F /  13.2 °C 49.1 °F /  9.5 °C 29.9in /  1011.3hPa NNE 9.6mph /  15.5km/h 19.7mph /  31.7km/h 78.7% 0in /  0.0mm
07:09 55.9 °F /  13.3 °C 49.1 °F /  9.5 °C 29.9in /  1011.3hPa NNE 10mph /  16.1km/h 20mph /  32.2km/h 77.4% 0in /  0.0mm
07:14 56.3 °F /  13.5 °C 49.1 °F /  9.5 °C 29.9in /  1011.3hPa NNE 10.9mph /  17.5km/h 22.3mph /  35.9km/h 76.6% 0in /  0.0mm
07:19 56.5 °F /  13.6 °C 49.1 °F /  9.5 °C 29.9in /  1011.3hPa NNE 11.2mph /  18km/h 29.1mph /  46.8km/h 76.2% 0in /  0.0mm
07:24 56.7 °F /  13.7 °C 49.3 °F /  9.6 °C 29.9in /  1011.3hPa NNE 12.5mph /  20.1km/h 29mph /  46.7km/h 76.5% 0in /  0.0mm
07:29 56.7 °F /  13.7 °C 49.5 °F /  9.7 °C 29.9in /  1011.3hPa NE 13mph /  20.9km/h 31.3mph /  50.4km/h 77% 0in /  0.0mm
07:34 56.7 °F /  13.7 °C 49.8 °F /  9.9 °C 29.9in /  1011.3hPa NE 14.1mph /  22.7km/h 31mph /  49.9km/h 77.9% 0in /  0.0mm
07:39 56.5 °F /  13.6 °C 50 °F /  10 °C 29.9in /  1011.5hPa NNE 14.5mph /  23.3km/h 25.3mph /  40.7km/h 78.9% 0in /  0.0mm
07:44 56.1 °F /  13.4 °C 50 °F /  10 °C 29.9in /  1011.5hPa NE 12.3mph /  19.8km/h 25mph /  40.2km/h 79.8% 0in /  0.0mm
07:49 56.1 °F /  13.4 °C 50 °F /  10 °C 29.9in /  1011.5hPa NNE 11.4mph /  18.4km/h 22mph /  35.4km/h 80% 0in /  0.0mm
07:54 56.1 °F /  13.4 °C 50 °F /  10 °C 29.9in /  1011.5hPa NNE 11.2mph /  18.1km/h 24.8mph /  39.9km/h 79.8% 0in /  0.0mm
07:59 56.5 °F /  13.6 °C 49.5 °F /  9.7 °C 29.9in /  1011.5hPa NNE 11.2mph /  18km/h 25.3mph /  40.7km/h 77.3% 0in /  0.0mm
08:04 56.7 °F /  13.7 °C 48.9 °F /  9.4 °C 29.9in /  1011.5hPa NE 13.7mph /  22.1km/h 25.3mph /  40.7km/h 75.2% 0in /  0.0mm
08:09 56.8 °F /  13.8 °C 48.7 °F /  9.3 °C 29.9in /  1011.5hPa NNE 14.5mph /  23.3km/h 26.5mph /  42.6km/h 74.1% 0in /  0.0mm
08:14 57 °F /  13.9 °C 48.6 °F /  9.2 °C 29.9in /  1011.5hPa NNE 13.8mph /  22.2km/h 27.9mph /  44.9km/h 73.6% 0in /  0.0mm
08:19 56.8 °F /  13.8 °C 48.4 °F /  9.1 °C 29.9in /  1011.5hPa NNE 13.5mph /  21.7km/h 28mph /  45.1km/h 73.2% 0in /  0.0mm
08:24 56.8 °F /  13.8 °C 48.4 °F /  9.1 °C 29.9in /  1011.7hPa NNE 14.2mph /  22.9km/h 31.1mph /  50.1km/h 73% 0in /  0.0mm
08:29 56.8 °F /  13.8 °C 48.4 °F /  9.1 °C 29.9in /  1011.7hPa NNE 14.5mph /  23.3km/h 31mph /  49.9km/h 73% 0in /  0.0mm
08:34 56.8 °F /  13.8 °C 48.2 °F /  9 °C 29.9in /  1011.7hPa NE 14.7mph /  23.6km/h 24.6mph /  39.6km/h 72.6% 0in /  0.0mm
08:39 56.8 °F /  13.8 °C 47.8 °F /  8.8 °C 29.9in /  1011.7hPa NNE 14.7mph /  23.7km/h 25mph /  40.2km/h 72% 0in /  0.0mm
08:44 56.8 °F /  13.8 °C 47.8 °F /  8.8 °C 29.9in /  1011.6hPa NE 15.3mph /  24.7km/h 24.8mph /  39.9km/h 72% 0in /  0.0mm
08:49 56.7 °F /  13.7 °C 47.8 °F /  8.8 °C 29.9in /  1011.6hPa NNE 15.6mph /  25.1km/h 27.9mph /  44.9km/h 72% 0in /  0.0mm
08:54 56.7 °F /  13.7 °C 48 °F /  8.9 °C 29.9in /  1011.6hPa NNE 14.4mph /  23.2km/h 28mph /  45.1km/h 72.8% 0in /  0.0mm
08:59 56.7 °F /  13.7 °C 48.4 °F /  9.1 °C 29.9in /  1011.6hPa NE 14mph /  22.5km/h 26mph /  41.8km/h 73.5% 0in /  0.0mm
09:04 56.7 °F /  13.7 °C 48.4 °F /  9.1 °C 29.9in /  1011.6hPa NNE 14.4mph /  23.1km/h 27.3mph /  43.9km/h 73.6% 0in /  0.0mm
09:09 56.7 °F /  13.7 °C 48 °F /  8.9 °C 29.9in /  1011.6hPa NE 14.5mph /  23.3km/h 28mph /  45.1km/h 72.8% 0in /  0.0mm
09:14 56.8 °F /  13.8 °C 48 °F /  8.9 °C 29.9in /  1011.6hPa NNE 15.5mph /  25km/h 28.8mph /  46.3km/h 72% 0in /  0.0mm
09:19 57 °F /  13.9 °C 48 °F /  8.9 °C 29.9in /  1011.6hPa NNE 15.9mph /  25.6km/h 29mph /  46.7km/h 72% 0in /  0.0mm
09:24 57 °F /  13.9 °C 48.2 °F /  9 °C 29.9in /  1011.6hPa NE 14.5mph /  23.4km/h 27.6mph /  44.4km/h 72.6% 0in /  0.0mm
09:29 56.8 °F /  13.8 °C 48.4 °F /  9.1 °C 29.9in /  1011.6hPa NNE 14mph /  22.5km/h 28mph /  45.1km/h 73.3% 0in /  0.0mm
09:34 56.8 °F /  13.8 °C 48.6 °F /  9.2 °C 29.9in /  1011.6hPa NE 12.9mph /  20.8km/h 25mph /  40.2km/h 74% 0in /  0.0mm
09:39 56.7 °F /  13.7 °C 48.6 °F /  9.2 °C 29.9in /  1011.7hPa NE 12.5mph /  20.1km/h 23mph /  37km/h 74.7% 0in /  0.0mm
09:44 56.5 °F /  13.6 °C 48.6 °F /  9.2 °C 29.9in /  1011.7hPa NE 12mph /  19.3km/h 24.2mph /  38.9km/h 75% 0in /  0.0mm
09:49 56.5 °F /  13.6 °C 48.6 °F /  9.2 °C 29.9in /  1011.7hPa NE 11.8mph /  19km/h 27.9mph /  44.9km/h 74.9% 0in /  0.0mm
09:54 56.5 °F /  13.6 °C 48.4 °F /  9.1 °C 29.9in /  1011.7hPa NNE 13.2mph /  21.2km/h 28mph /  45.1km/h 74% 0in /  0.0mm
09:59 56.5 °F /  13.6 °C 48.4 °F /  9.1 °C 29.9in /  1011.7hPa NE 13.7mph /  22.1km/h 27mph /  43.5km/h 74% 0in /  0.0mm
10:04 56.5 °F /  13.6 °C 48.4 °F /  9.1 °C 29.9in /  1011.7hPa NNE 13.5mph /  21.8km/h 26mph /  41.8km/h 74% 0in /  0.0mm
10:09 56.5 °F /  13.6 °C 48.4 °F /  9.1 °C 29.9in /  1012.0hPa NE 13.5mph /  21.7km/h 25.3mph /  40.7km/h 74% 0in /  0.0mm
10:14 56.5 °F /  13.6 °C 48.4 °F /  9.1 °C 29.9in /  1012.0hPa NNE 14.4mph /  23.1km/h 25mph /  40.2km/h 74.4% 0in /  0.0mm
10:19 56.1 °F /  13.4 °C 48.4 °F /  9.1 °C 29.9in /  1012.0hPa NNE 14.7mph /  23.7km/h 22mph /  35.4km/h 75.1% 0in /  0.0mm
10:24 56.1 °F /  13.4 °C 48.4 °F /  9.1 °C 29.9in /  1012.0hPa NNE 13.9mph /  22.3km/h 24.2mph /  38.9km/h 75.4% 0in /  0.0mm
10:29 56.1 °F /  13.4 °C 48.2 °F /  9 °C 29.9in /  1011.9hPa NNE 13.5mph /  21.7km/h 28.8mph /  46.3km/h 74.7% 0in /  0.0mm
10:34 56.3 °F /  13.5 °C 48 °F /  8.9 °C 29.9in /  1011.9hPa NNE 14.4mph /  23.1km/h 29mph /  46.7km/h 74% 0in /  0.0mm
10:39 56.3 °F /  13.5 °C 48 °F /  8.9 °C 29.9in /  1012.0hPa NNE 14.7mph /  23.7km/h 27mph /  43.5km/h 73.5% 0in /  0.0mm
10:44 56.5 °F /  13.6 °C 47.8 °F /  8.8 °C 29.9in /  1012.0hPa NE 14.2mph /  22.8km/h 27.6mph /  44.4km/h 73% 0in /  0.0mm
10:49 56.5 °F /  13.6 °C 47.8 °F /  8.8 °C 29.9in /  1012.0hPa NNE 14mph /  22.5km/h 28mph /  45.1km/h 73% 0in /  0.0mm
10:54 56.5 °F /  13.6 °C 47.8 °F /  8.8 °C 29.9in /  1012.0hPa NE 14.8mph /  23.9km/h 26.5mph /  42.6km/h 73% 0in /  0.0mm
10:59 56.5 °F /  13.6 °C 48 °F /  8.9 °C 29.9in /  1012.0hPa NE 15.2mph /  24.5km/h 26.5mph /  42.6km/h 73% 0in /  0.0mm
11:04 56.7 °F /  13.7 °C 48 °F /  8.9 °C 29.9in /  1012.0hPa NNE 14.7mph /  23.6km/h 26mph /  41.8km/h 72.9% 0in /  0.0mm
11:09 56.7 °F /  13.7 °C 48 °F /  8.9 °C 29.9in /  1012.1hPa NE 14.5mph /  23.3km/h 31.3mph /  50.4km/h 72.8% 0in /  0.0mm
11:14 56.7 °F /  13.7 °C 48 °F /  8.9 °C 29.9in /  1012.1hPa NNE 15.8mph /  25.5km/h 31mph /  49.9km/h 73% 0.01in /  0.3mm
11:19 56.7 °F /  13.7 °C 48 °F /  8.9 °C 29.9in /  1012.1hPa NNE 16.3mph /  26.2km/h 30mph /  48.3km/h 73% 0.01in /  0.3mm
11:24 56.7 °F /  13.7 °C 47.8 °F /  8.8 °C 29.9in /  1012.1hPa NE 17.1mph /  27.6km/h 32.2mph /  51.8km/h 72.2% 0.01in /  0.3mm
11:29 56.7 °F /  13.7 °C 47.7 °F /  8.7 °C 29.9in /  1011.9hPa NE 17.5mph /  28.2km/h 32.2mph /  51.8km/h 71.6% 0.01in /  0.3mm
11:34 56.7 °F /  13.7 °C 47.7 °F /  8.7 °C 29.9in /  1011.9hPa NE 17.7mph /  28.5km/h 32mph /  51.5km/h 72% 0.01in /  0.3mm
11:39 56.7 °F /  13.7 °C 47.5 °F /  8.6 °C 29.9in /  1011.9hPa NNE 17.8mph /  28.7km/h 29mph /  46.7km/h 71.1% 0.01in /  0.3mm
11:44 56.7 °F /  13.7 °C 47.5 °F /  8.6 °C 29.9in /  1011.9hPa NNE 15.9mph /  25.6km/h 29.1mph /  46.8km/h 71% 0.01in /  0.3mm
11:49 56.7 °F /  13.7 °C 47.5 °F /  8.6 °C 29.9in /  1011.9hPa NE 15.2mph /  24.5km/h 29mph /  46.7km/h 71% 0.01in /  0.3mm
11:54 56.7 °F /  13.7 °C 47.7 °F /  8.7 °C 29.9in /  1011.9hPa NNE 16.5mph /  26.5km/h 29mph /  46.7km/h 71.9% 0.01in /  0.3mm
11:59 56.7 °F /  13.7 °C 47.7 °F /  8.7 °C 29.9in /  1011.7hPa NNE 17mph /  27.4km/h 27.6mph /  44.4km/h 72% 0.01in /  0.3mm
12:04 56.7 °F /  13.7 °C 47.8 °F /  8.8 °C 29.9in /  1011.7hPa NE 16mph /  25.7km/h 28mph /  45.1km/h 72.1% 0.01in /  0.3mm
12:09 56.7 °F /  13.7 °C 48 °F /  8.9 °C 29.9in /  1011.7hPa NNE 15.6mph /  25.1km/h 26mph /  41.8km/h 73% 0.01in /  0.3mm
12:14 56.7 °F /  13.7 °C 48 °F /  8.9 °C 29.9in /  1011.5hPa NE 15.6mph /  25.1km/h 25mph /  40.2km/h 73% 0.01in /  0.3mm
12:19 56.7 °F /  13.7 °C 48.2 °F /  9 °C 29.9in /  1011.5hPa NE 15.6mph /  25.1km/h 28.8mph /  46.3km/h 73.1% 0in /  0.0mm
12:24 56.8 °F /  13.8 °C 48.4 °F /  9.1 °C 29.9in /  1011.5hPa NE 16.1mph /  25.9km/h 29mph /  46.7km/h 73.4% 0in /  0.0mm
12:29 56.7 °F /  13.7 °C 48.6 °F /  9.2 °C 29.9in /  1011.4hPa NE 16.3mph /  26.2km/h 26mph /  41.8km/h 74% 0in /  0.0mm
12:34 56.7 °F /  13.7 °C 48.6 °F /  9.2 °C 29.9in /  1011.4hPa NE 14.4mph /  23.2km/h 25.3mph /  40.7km/h 74.1% 0in /  0.0mm
12:39 56.3 °F /  13.5 °C 48.6 °F /  9.2 °C 29.9in /  1011.4hPa NE 13.7mph /  22.1km/h 33.1mph /  53.3km/h 75.3% 0in /  0.0mm
12:44 55.9 °F /  13.3 °C 48.7 °F /  9.3 °C 29.9in /  1011.1hPa NNE 16mph /  25.7km/h 33.4mph /  53.8km/h 76.3% 0in /  0.0mm
12:49 55.8 °F /  13.2 °C 48.9 °F /  9.4 °C 29.9in /  1011.1hPa NE 16.8mph /  27km/h 33mph /  53.1km/h 77.7% 0in /  0.0mm
12:54 55.4 °F /  13 °C 48.9 °F /  9.4 °C 29.9in /  1011.1hPa NNE 15.9mph /  25.6km/h 27.9mph /  44.9km/h 79% 0in /  0.0mm
12:59 55.2 °F /  12.9 °C 49.1 °F /  9.5 °C 29.9in /  1010.9hPa NNE 15.6mph /  25.1km/h 28mph /  45.1km/h 79.7% 0in /  0.0mm
13:04 55 °F /  12.8 °C 49.3 °F /  9.6 °C 29.9in /  1010.9hPa NNE 14.9mph /  24km/h 24mph /  38.6km/h 81% 0in /  0.0mm
13:09 54.9 °F /  12.7 °C 49.6 °F /  9.8 °C 29.9in /  1010.9hPa NNE 14.7mph /  23.7km/h 25.6mph /  41.2km/h 82.3% 0in /  0.0mm
13:14 54.7 °F /  12.6 °C 49.6 °F /  9.8 °C 29.8in /  1010.7hPa NNE 13.5mph /  21.7km/h 26mph /  41.8km/h 83% 0in /  0.0mm
13:19 54.7 °F /  12.6 °C 49.6 °F /  9.8 °C 29.8in /  1010.7hPa NNE 13mph /  20.9km/h 25mph /  40.2km/h 83.4% 0in /  0.0mm
13:24 54.5 °F /  12.5 °C 49.8 °F /  9.9 °C 29.8in /  1010.7hPa NNE 14.8mph /  23.9km/h 31.1mph /  50.1km/h 84.3% 0in /  0.0mm
13:29 54.1 °F /  12.3 °C 50 °F /  10 °C 29.8in /  1010.7hPa NNE 15.6mph /  25.1km/h 31mph /  49.9km/h 85.6% 0in /  0.0mm
13:34 54 °F /  12.2 °C 50.2 °F /  10.1 °C 29.8in /  1010.7hPa NNE 14.2mph /  22.9km/h 24mph /  38.6km/h 87.1% 0.01in /  0.2mm
13:39 53.8 °F /  12.1 °C 50.4 °F /  10.2 °C 29.8in /  1010.7hPa NE 13.7mph /  22.1km/h 23mph /  37km/h 88.3% 0.01in /  0.2mm
13:44 53.4 °F /  11.9 °C 50.4 °F /  10.2 °C 29.8in /  1010.5hPa NNE 11.9mph /  19.1km/h 24.6mph /  39.6km/h 89% 0.02in /  0.5mm
13:49 53.2 °F /  11.8 °C 50.2 °F /  10.1 °C 29.8in /  1010.5hPa NNE 11.2mph /  18km/h 25mph /  40.2km/h 89.2% 0.03in /  0.8mm
13:54 53.2 °F /  11.8 °C 50.4 °F /  10.2 °C 29.8in /  1010.5hPa NE 13.7mph /  22.1km/h 25mph /  40.2km/h 90% 0.03in /  0.8mm
13:59 53.1 °F /  11.7 °C 50.2 °F /  10.1 °C 29.8in /  1010.4hPa NNE 14.7mph /  23.7km/h 25.6mph /  41.2km/h 90% 0.04in /  1.0mm
14:04 53.1 °F /  11.7 °C 50.2 °F /  10.1 °C 29.8in /  1010.4hPa NE 13.8mph /  22.2km/h 26mph /  41.8km/h 90% 0.06in /  1.5mm
14:09 53.1 °F /  11.7 °C 50.5 °F /  10.3 °C 29.8in /  1010.4hPa NE 13.5mph /  21.7km/h 26mph /  41.8km/h 90.9% 0.06in /  1.5mm
14:14 53.1 °F /  11.7 °C 50.5 °F /  10.3 °C 29.8in /  1010.1hPa NE 12.2mph /  19.7km/h 19mph /  30.6km/h 91% 0.07in /  1.8mm
14:19 53.1 °F /  11.7 °C 50.5 °F /  10.3 °C 29.8in /  1010.1hPa NE 11.8mph /  19km/h 16.1mph /  25.9km/h 91% 0.07in /  1.8mm
14:24 53.1 °F /  11.7 °C 50.5 °F /  10.3 °C 29.8in /  1010.1hPa NE 9.9mph /  15.9km/h 16mph /  25.7km/h 91% 0.07in /  1.8mm
14:29 53.1 °F /  11.7 °C 50.5 °F /  10.3 °C 29.8in /  1009.9hPa NE 9.2mph /  14.8km/h 15mph /  24.1km/h 91% 0.07in /  1.8mm
14:34 53.1 °F /  11.7 °C 50.5 °F /  10.3 °C 29.8in /  1009.9hPa NNE 7.6mph /  12.2km/h 12mph /  19.3km/h 91% 0.07in /  1.8mm
14:39 53.1 °F /  11.7 °C 50.5 °F /  10.3 °C 29.8in /  1009.9hPa NNE 6.9mph /  11.1km/h 14mph /  22.5km/h 91% 0.06in /  1.6mm
14:44 53.2 °F /  11.8 °C 50.7 °F /  10.4 °C 29.8in /  1009.8hPa NNE 7.3mph /  11.7km/h 14mph /  22.5km/h 91% 0.06in /  1.6mm
14:49 53.2 °F /  11.8 °C 50.7 °F /  10.4 °C 29.8in /  1009.8hPa NNE 7.4mph /  11.9km/h 13mph /  20.9km/h 91% 0.05in /  1.3mm
14:54 53.2 °F /  11.8 °C 50.7 °F /  10.4 °C 29.8in /  1009.8hPa NE 7.9mph /  12.7km/h 17.5mph /  28.2km/h 90.9% 0.06in /  1.5mm
14:59 53.2 °F /  11.8 °C 50.7 °F /  10.4 °C 29.8in /  1009.6hPa NE 8.1mph /  13km/h 17.3mph /  27.8km/h 91% 0.07in /  1.8mm
15:04 53.1 °F /  11.7 °C 50.5 °F /  10.3 °C 29.8in /  1009.6hPa NE 10.1mph /  16.2km/h 17mph /  27.4km/h 91% 0.06in /  1.5mm
15:09 53.1 °F /  11.7 °C 50.5 °F /  10.3 °C 29.8in /  1009.7hPa NE 10.7mph /  17.2km/h 15mph /  24.1km/h 91% 0.05in /  1.3mm
15:14 53.1 °F /  11.7 °C 50.5 °F /  10.3 °C 29.8in /  1009.7hPa NNE 8.8mph /  14.2km/h 16.1mph /  25.9km/h 91% 0.06in /  1.6mm
15:19 52.9 °F /  11.6 °C 50.4 °F /  10.2 °C 29.8in /  1009.7hPa NE 8.1mph /  13km/h 17.5mph /  28.2km/h 91% 0.05in /  1.3mm
15:24 52.9 °F /  11.6 °C 50.4 °F /  10.2 °C 29.8in /  1009.7hPa NE 9.4mph /  15.2km/h 18.4mph /  29.6km/h 91% 0.05in /  1.3mm
15:29 53.1 °F /  11.7 °C 50.4 °F /  10.2 °C 29.8in /  1009.4hPa NNE 10mph /  16.1km/h 18.4mph /  29.6km/h 90.5% 0.05in /  1.3mm
15:34 53.1 °F /  11.7 °C 50.2 °F /  10.1 °C 29.8in /  1009.4hPa NNE 9.1mph /  14.6km/h 14mph /  22.5km/h 90% 0.05in /  1.3mm
15:39 53.2 °F /  11.8 °C 50.4 °F /  10.2 °C 29.8in /  1009.4hPa NE 8.7mph /  14km/h 14mph /  22.5km/h 90% 0.05in /  1.3mm
15:44 53.2 °F /  11.8 °C 50.4 °F /  10.2 °C 29.8in /  1009.4hPa NE 8.3mph /  13.3km/h 15.2mph /  24.5km/h 90% 0.05in /  1.3mm
15:49 53.4 °F /  11.9 °C 50.4 °F /  10.2 °C 29.8in /  1009.4hPa NE 8.1mph /  13km/h 18.4mph /  29.6km/h 89.3% 0.05in /  1.3mm
15:54 53.2 °F /  11.8 °C 50.2 °F /  10.1 °C 29.8in /  1009.4hPa NE 9.5mph /  15.3km/h 24.6mph /  39.6km/h 88.8% 0.05in /  1.3mm
15:59 53.1 °F /  11.7 °C 49.6 °F /  9.8 °C 29.8in /  1009.4hPa NE 10mph /  16.1km/h 25mph /  40.2km/h 88.4% 0.02in /  0.6mm
16:04 52.7 °F /  11.5 °C 49.5 °F /  9.7 °C 29.8in /  1009.4hPa NE 12.7mph /  20.4km/h 24mph /  38.6km/h 89.1% 0.01in /  0.3mm
16:09 52.2 °F /  11.2 °C 49.3 °F /  9.6 °C 29.8in /  1009.5hPa NE 13.5mph /  21.7km/h 27.6mph /  44.4km/h 90% 0.03in /  0.8mm
16:14 52 °F /  11.1 °C 49.3 °F /  9.6 °C 29.8in /  1009.5hPa NE 12.8mph /  20.6km/h 28mph /  45.1km/h 90.8% 0.04in /  1.0mm
16:19 51.6 °F /  10.9 °C 49.3 °F /  9.6 °C 29.8in /  1009.5hPa NE 12.5mph /  20.1km/h 21mph /  33.8km/h 91.5% 0.06in /  1.5mm
16:24 51.4 °F /  10.8 °C 49.1 °F /  9.5 °C 29.8in /  1009.6hPa NE 10.8mph /  17.4km/h 21.9mph /  35.2km/h 92% 0.07in /  1.8mm
16:29 51.3 °F /  10.7 °C 49.3 °F /  9.6 °C 29.8in /  1009.6hPa NE 10.2mph /  16.4km/h 22mph /  35.4km/h 92.7% 0.07in /  1.8mm
16:34 51.3 °F /  10.7 °C 49.3 °F /  9.6 °C 29.8in /  1009.6hPa NE 10.9mph /  17.6km/h 16.1mph /  25.9km/h 93% 0.08in /  2.0mm
16:39 51.3 °F /  10.7 °C 49.3 °F /  9.6 °C 29.8in /  1009.6hPa NE 11.2mph /  18km/h 16mph /  25.7km/h 93% 0.08in /  2.0mm
16:44 51.3 °F /  10.7 °C 49.3 °F /  9.6 °C 29.8in /  1009.4hPa NE 9.3mph /  14.9km/h 13mph /  20.9km/h 93% 0.08in /  2.0mm
16:49 51.3 °F /  10.7 °C 49.3 °F /  9.6 °C 29.8in /  1009.4hPa NE 8.5mph /  13.7km/h 13.8mph /  22.2km/h 93% 0.08in /  2.0mm
16:54 51.3 °F /  10.7 °C 49.3 °F /  9.6 °C 29.8in /  1009.4hPa NE 7mph /  11.2km/h 14mph /  22.5km/h 93% 0.09in /  2.3mm
16:59 51.3 °F /  10.7 °C 49.3 °F /  9.6 °C 29.8in /  1009.3hPa NE 6.4mph /  10.3km/h 9.2mph /  14.8km/h 93% 0.09in /  2.3mm
17:04 51.3 °F /  10.7 °C 49.3 °F /  9.6 °C 29.8in /  1009.3hPa NNE 6mph /  9.7km/h 9mph /  14.5km/h 93% 0.09in /  2.3mm
17:09 51.3 °F /  10.7 °C 49.3 °F /  9.6 °C 29.8in /  1009.3hPa NE 5.9mph /  9.5km/h 8mph /  12.9km/h 93% 0.08in /  2.1mm
17:14 51.3 °F /  10.7 °C 49.3 °F /  9.6 °C 29.8in /  1009.3hPa NE 3.9mph /  6.2km/h 6mph /  9.7km/h 93% 0.07in /  1.8mm
17:19 51.4 °F /  10.8 °C 49.5 °F /  9.7 °C 29.8in /  1009.3hPa ONO 3.1mph /  5km/h 6mph /  9.7km/h 93% 0.05in /  1.3mm
17:24 51.4 °F /  10.8 °C 49.6 °F /  9.8 °C 29.8in /  1009.4hPa Oeste 3mph /  4.8km/h 6mph /  9.7km/h 93.5% 0.03in /  0.8mm
17:29 51.4 °F /  10.8 °C 49.8 °F /  9.9 °C 29.8in /  1009.4hPa OSO 2.9mph /  4.7km/h 6.9mph /  11.1km/h 94% 0.02in /  0.5mm
17:34 51.6 °F /  10.9 °C 49.8 °F /  9.9 °C 29.8in /  1009.4hPa OSO 2.9mph /  4.7km/h 7mph /  11.3km/h 94% 0.01in /  0.3mm
17:39 51.6 °F /  10.9 °C 49.8 °F /  9.9 °C 29.8in /  1009.4hPa SSO 2.9mph /  4.7km/h 5mph /  8km/h 94% 0.01in /  0.3mm
17:44 51.6 °F /  10.9 °C 49.8 °F /  9.9 °C 29.8in /  1009.3hPa Sur 2.1mph /  3.4km/h 4mph /  6.4km/h 94% 0.01in /  0.3mm
17:49 51.6 °F /  10.9 °C 49.8 °F /  9.9 °C 29.8in /  1009.3hPa Sur 1.8mph /  2.9km/h   94% 0.01in /  0.3mm
17:54 51.6 °F /  10.9 °C 49.8 °F /  9.9 °C 29.8in /  1009.4hPa SSE 0.5mph /  0.8km/h   94% 0in /  0.0mm
17:59 51.6 °F /  10.9 °C 49.8 °F /  9.9 °C 29.8in /  1009.4hPa Calm   2.9mph /  4.7km/h 94% 0in /  0.0mm
18:04 51.6 °F /  10.9 °C 49.8 °F /  9.9 °C 29.8in /  1009.4hPa Calm   4.6mph /  7.4km/h 94% 0in /  0.0mm
18:09 51.8 °F /  11 °C 50 °F /  10 °C 29.8in /  1009.4hPa Calm   5.2mph /  8.4km/h 94% 0in /  0.0mm
18:14 52 °F /  11.1 °C 50.2 °F /  10.1 °C 29.8in /  1009.3hPa OSO 1.8mph /  2.9km/h 5mph /  8km/h 94% 0in /  0.0mm
18:19 52 °F /  11.1 °C 50.4 °F /  10.2 °C 29.8in /  1009.3hPa OSO 2.4mph /  3.9km/h 5mph /  8km/h 94% 0in /  0.0mm
18:24 52 °F /  11.1 °C 50.4 °F /  10.2 °C 29.8in /  1009.3hPa SO 2.7mph /  4.4km/h 5.8mph /  9.3km/h 94% 0in /  0.0mm
18:29 52 °F /  11.1 °C 50.4 °F /  10.2 °C 29.8in /  1009.3hPa SO 2.9mph /  4.7km/h 6mph /  9.7km/h 94% 0in /  0.0mm
18:34 52.2 °F /  11.2 °C 50.4 °F /  10.2 °C 29.8in /  1009.3hPa SSO 2.1mph /  3.4km/h 5mph /  8km/h 94% 0in /  0.0mm
18:39 52.2 °F /  11.2 °C 50.5 °F /  10.3 °C 29.8in /  1009.5hPa Sur 1.8mph /  2.9km/h 6.2mph /  10km/h 94% 0in /  0.0mm
18:44 52.2 °F /  11.2 °C 50.5 °F /  10.3 °C 29.8in /  1009.5hPa SSE 2.7mph /  4.4km/h 6.4mph /  10.3km/h 94% 0in /  0.0mm
18:49 52.2 °F /  11.2 °C 50.5 °F /  10.3 °C 29.8in /  1009.5hPa SSE 3.1mph /  5km/h 7.4mph /  11.9km/h 94% 0in /  0.0mm
18:54 52.2 °F /  11.2 °C 50.4 °F /  10.2 °C 29.8in /  1009.6hPa SSE 4mph /  6.4km/h 8.1mph /  13km/h 94% 0in /  0.0mm
18:59 52 °F /  11.1 °C 50.4 °F /  10.2 °C 29.8in /  1009.6hPa Sur 4.3mph /  6.9km/h 8mph /  12.9km/h 94% 0in /  0.0mm
19:04 52 °F /  11.1 °C 50.4 °F /  10.2 °C 29.8in /  1009.6hPa SO 4.3mph /  6.9km/h 7mph /  11.3km/h 94% 0in /  0.0mm
19:09 52 °F /  11.1 °C 50.4 °F /  10.2 °C 29.8in /  1009.6hPa OSO 4.3mph /  6.9km/h 7mph /  11.3km/h 94% 0in /  0.0mm
19:14 52.2 °F /  11.2 °C 50.5 °F /  10.3 °C 29.8in /  1009.6hPa OSO 2.9mph /  4.7km/h 5mph /  8km/h 94% 0in /  0.0mm
19:19 52 °F /  11.1 °C 50.2 °F /  10.1 °C 29.8in /  1009.6hPa OSO 2.4mph /  3.9km/h 7.4mph /  11.9km/h 93.7% 0in /  0.0mm
19:24 52 °F /  11.1 °C 50 °F /  10 °C 29.8in /  1009.6hPa OSO 3.3mph /  5.3km/h 7mph /  11.3km/h 93% 0in /  0.0mm
19:29 52 °F /  11.1 °C 49.8 °F /  9.9 °C 29.8in /  1009.5hPa OSO 3.6mph /  5.8km/h 7mph /  11.3km/h 92.6% 0in /  0.0mm
19:34 52 °F /  11.1 °C 49.6 °F /  9.8 °C 29.8in /  1009.5hPa OSO 3.9mph /  6.3km/h 7mph /  11.3km/h 92% 0in /  0.0mm
19:39 52 °F /  11.1 °C 49.5 °F /  9.7 °C 29.8in /  1009.6hPa Oeste 4mph /  6.5km/h 6.2mph /  10km/h 91.3% 0in /  0.0mm
19:44 52 °F /  11.1 °C 49.3 °F /  9.6 °C 29.8in /  1009.6hPa ONO 3.7mph /  6km/h 7.4mph /  11.9km/h 90.9% 0in /  0.0mm
19:49 52 °F /  11.1 °C 49.1 °F /  9.5 °C 29.8in /  1009.6hPa ONO 3.6mph /  5.8km/h 8.7mph /  14km/h 90% 0in /  0.0mm
19:54 52 °F /  11.1 °C 48.7 °F /  9.3 °C 29.8in /  1009.6hPa ONO 4.8mph /  7.7km/h 10.4mph /  16.7km/h 88.9% 0in /  0.0mm
19:59 52 °F /  11.1 °C 48.4 °F /  9.1 °C 29.8in /  1009.5hPa ONO 5.2mph /  8.4km/h 10.4mph /  16.7km/h 87.7% 0in /  0.0mm
20:04 52 °F /  11.1 °C 48.2 °F /  9 °C 29.8in /  1009.5hPa ONO 6mph /  9.6km/h 11.5mph /  18.5km/h 87% 0in /  0.0mm
20:09 52 °F /  11.1 °C 47.8 °F /  8.8 °C 29.8in /  1009.5hPa ONO 6.2mph /  10km/h 12mph /  19.3km/h 85.8% 0in /  0.0mm
20:14 52 °F /  11.1 °C 47.5 °F /  8.6 °C 29.8in /  1009.5hPa ONO 6mph /  9.6km/h 11.5mph /  18.5km/h 84.8% 0in /  0.0mm
20:19 52.2 °F /  11.2 °C 47.3 °F /  8.5 °C 29.8in /  1009.5hPa ONO 5.9mph /  9.5km/h 12mph /  19.3km/h 83.9% 0in /  0.0mm
20:24 52.2 °F /  11.2 °C 47.1 °F /  8.4 °C 29.8in /  1009.5hPa ONO 6.6mph /  10.7km/h 11mph /  17.7km/h 83% 0in /  0.0mm
20:29 52.2 °F /  11.2 °C 46.8 °F /  8.2 °C 29.8in /  1009.5hPa ONO 6.9mph /  11.1km/h 12.7mph /  20.4km/h 82.1% 0in /  0.0mm
20:34 52.3 °F /  11.3 °C 46.8 °F /  8.2 °C 29.8in /  1009.5hPa ONO 6.9mph /  11.1km/h 13mph /  20.9km/h 81.2% 0in /  0.0mm
20:39 52.3 °F /  11.3 °C 46.6 °F /  8.1 °C 29.8in /  1009.5hPa ONO 6.9mph /  11.1km/h 12mph /  19.3km/h 80.6% 0in /  0.0mm
20:44 52.3 °F /  11.3 °C 46.4 °F /  8 °C 29.8in /  1009.5hPa ONO 6.9mph /  11.1km/h 15mph /  24.1km/h 80% 0in /  0.0mm
20:49 52.3 °F /  11.3 °C 46 °F /  7.8 °C 29.8in /  1009.5hPa ONO 6.9mph /  11.1km/h 15mph /  24.1km/h 79.2% 0in /  0.0mm
20:54 52.5 °F /  11.4 °C 46 °F /  7.8 °C 29.8in /  1009.5hPa ONO 7.8mph /  12.5km/h 14mph /  22.5km/h 78.5% 0in /  0.0mm
20:59 52.5 °F /  11.4 °C 45.9 °F /  7.7 °C 29.8in /  1009.5hPa ONO 8.1mph /  13km/h 13mph /  20.9km/h 78% 0in /  0.0mm
21:04 52.5 °F /  11.4 °C 45.7 °F /  7.6 °C 29.8in /  1009.5hPa Oeste 7.7mph /  12.4km/h 13mph /  20.9km/h 77.5% 0in /  0.0mm
21:09 52.5 °F /  11.4 °C 45.5 °F /  7.5 °C 29.8in /  1009.5hPa Oeste 7.6mph /  12.2km/h 12.7mph /  20.4km/h 77% 0in /  0.0mm
21:14 52.5 °F /  11.4 °C 45.5 °F /  7.5 °C 29.8in /  1009.5hPa Oeste 7.5mph /  12km/h 13mph /  20.9km/h 77% 0in /  0.0mm
21:19 52.7 °F /  11.5 °C 45.7 °F /  7.6 °C 29.8in /  1009.5hPa Oeste 7.4mph /  11.9km/h 14mph /  22.5km/h 77% 0in /  0.0mm
21:24 52.7 °F /  11.5 °C 45.9 °F /  7.7 °C 29.8in /  1009.5hPa Oeste 6.6mph /  10.7km/h 14mph /  22.5km/h 77.7% 0in /  0.0mm
21:29 52.5 °F /  11.4 °C 46 °F /  7.8 °C 29.8in /  1009.5hPa Oeste 6.4mph /  10.3km/h 9.7mph /  15.6km/h 78.6% 0in /  0.0mm
21:34 52.3 °F /  11.3 °C 46.6 °F /  8.1 °C 29.8in /  1009.5hPa Oeste 5.7mph /  9.1km/h 10.7mph /  17.2km/h 80.2% 0in /  0.0mm
21:39 52.2 °F /  11.2 °C 46.4 °F /  8 °C 29.8in /  1009.5hPa Oeste 5.4mph /  8.7km/h 13mph /  20.9km/h 81% 0in /  0.0mm
21:44 52 °F /  11.1 °C 46.2 °F /  7.9 °C 29.8in /  1009.4hPa Oeste 6mph /  9.6km/h 13mph /  20.9km/h 81% 0in /  0.0mm
21:49 52 °F /  11.1 °C 46.2 °F /  7.9 °C 29.8in /  1009.4hPa OSO 6.2mph /  10km/h 12.5mph /  20.1km/h 81% 0in /  0.0mm
21:54 51.8 °F /  11 °C 46.2 °F /  7.9 °C 29.8in /  1009.4hPa OSO 6.7mph /  10.8km/h 13mph /  20.9km/h 81% 0in /  0.0mm
21:59 51.8 °F /  11 °C 46.2 °F /  7.9 °C 29.8in /  1009.3hPa OSO 6.9mph /  11.1km/h 10mph /  16.1km/h 81% 0in /  0.0mm
22:04 51.8 °F /  11 °C 46.2 °F /  7.9 °C 29.8in /  1009.3hPa Oeste 6.3mph /  10.2km/h 10.7mph /  17.2km/h 81% 0in /  0.0mm
22:09 51.8 °F /  11 °C 45.9 °F /  7.7 °C 29.8in /  1009.3hPa OSO 6.2mph /  10km/h 13mph /  20.9km/h 80.1% 0in /  0.0mm
22:14 51.8 °F /  11 °C 45.7 °F /  7.6 °C 29.8in /  1009.3hPa OSO 6.7mph /  10.8km/h 13mph /  20.9km/h 79.5% 0in /  0.0mm
22:19 52 °F /  11.1 °C 45.7 °F /  7.6 °C 29.8in /  1009.3hPa OSO 6.9mph /  11.1km/h 15.9mph /  25.6km/h 79% 0in /  0.0mm
22:24 52 °F /  11.1 °C 45.3 °F /  7.4 °C 29.8in /  1009.3hPa Oeste 7.4mph /  11.9km/h 16.1mph /  25.9km/h 78% 0in /  0.0mm
22:29 52 °F /  11.1 °C 45.3 °F /  7.4 °C 29.8in /  1009.1hPa Oeste 7.6mph /  12.2km/h 16mph /  25.7km/h 78% 0in /  0.0mm
22:34 52 °F /  11.1 °C 45.3 °F /  7.4 °C 29.8in /  1009.1hPa OSO 7.6mph /  12.2km/h 16.1mph /  25.9km/h 78% 0in /  0.0mm
22:39 52 °F /  11.1 °C 45.3 °F /  7.4 °C 29.8in /  1009.1hPa OSO 7.6mph /  12.2km/h 16mph /  25.7km/h 78% 0in /  0.0mm
22:44 52 °F /  11.1 °C 45.3 °F /  7.4 °C 29.8in /  1009.0hPa OSO 7.1mph /  11.4km/h 13mph /  20.9km/h 78% 0in /  0.0mm
22:49 51.8 °F /  11 °C 45.3 °F /  7.4 °C 29.8in /  1009.0hPa Oeste 6.9mph /  11.1km/h 16.1mph /  25.9km/h 78.4% 0in /  0.0mm
22:54 51.6 °F /  10.9 °C 45.3 °F /  7.4 °C 29.8in /  1009.0hPa Oeste 6.9mph /  11.1km/h 16mph /  25.7km/h 79% 0in /  0.0mm
22:59 51.6 °F /  10.9 °C 45.1 °F /  7.3 °C 29.8in /  1008.9hPa Oeste 6.9mph /  11.1km/h 19mph /  30.6km/h 78.5% 0in /  0.0mm
23:04 51.6 °F /  10.9 °C 45.3 °F /  7.4 °C 29.8in /  1008.9hPa Oeste 9.1mph /  14.6km/h 19mph /  30.6km/h 78.9% 0in /  0.0mm
23:09 51.6 °F /  10.9 °C 45.1 °F /  7.3 °C 29.8in /  1008.9hPa Oeste 9.7mph /  15.6km/h 17.3mph /  27.8km/h 78.4% 0in /  0.0mm
23:14 51.6 °F /  10.9 °C 45.3 °F /  7.4 °C 29.8in /  1008.9hPa Oeste 9.3mph /  15km/h 17.3mph /  27.8km/h 78.9% 0in /  0.0mm
23:19 51.6 °F /  10.9 °C 45.1 °F /  7.3 °C 29.8in /  1008.9hPa Oeste 9.2mph /  14.8km/h 17.3mph /  27.8km/h 78.7% 0in /  0.0mm
23:24 51.6 °F /  10.9 °C 45.1 °F /  7.3 °C 29.8in /  1008.9hPa Oeste 7.5mph /  12.1km/h 16.1mph /  25.9km/h 78.7% 0in /  0.0mm
23:29 51.6 °F /  10.9 °C 45 °F /  7.2 °C 29.8in /  1008.6hPa Oeste 6.9mph /  11.1km/h 16.1mph /  25.9km/h 78% 0in /  0.0mm
23:34 51.8 °F /  11 °C 45.1 °F /  7.3 °C 29.8in /  1008.6hPa Oeste 7.8mph /  12.5km/h 16mph /  25.7km/h 78% 0in /  0.0mm
23:39 51.8 °F /  11 °C 45.1 °F /  7.3 °C 29.8in /  1008.6hPa Oeste 8.1mph /  13km/h 14mph /  22.5km/h 78% 0in /  0.0mm
23:44 51.8 °F /  11 °C 45.1 °F /  7.3 °C 29.8in /  1008.6hPa Oeste 6.7mph /  10.8km/h 15.2mph /  24.5km/h 78% 0in /  0.0mm
23:49 51.6 °F /  10.9 °C 45.1 °F /  7.3 °C 29.8in /  1008.6hPa OSO 6.2mph /  10km/h 15mph /  24.1km/h 78% 0in /  0.0mm
23:54 51.6 °F /  10.9 °C 45 °F /  7.2 °C 29.8in /  1008.6hPa OSO 7.2mph /  11.6km/h 18.4mph /  29.6km/h 78% 0in /  0.0mm
23:59 51.6 °F /  10.9 °C 45 °F /  7.2 °C 29.8in /  1008.4hPa OSO 7.6mph /  12.2km/h 18mph /  29km/h 78% 0in /  0.0mm
Murcia-Puente Tocinos, España
Compliments of Weather Underground - 3 mb

La estación de MeteoMurcia.com, publica sus datos en los siguientes proyectos:

Weather Underground PWS IMURCIAP2 Meteoclimatic www.awekas.at

W3Counter
Web Analytics